sensor_id;sensor_type;location;lat;lon;timestamp;P1;durP1;ratioP1;P2;durP2;ratioP2
75537;SDS011;64121;48.666;8.114;2023-02-15T00:01:34;25.80;;;13.18;;
75537;SDS011;64121;48.666;8.114;2023-02-15T00:04:00;23.17;;;12.25;;
75537;SDS011;64121;48.666;8.114;2023-02-15T00:06:26;28.80;;;12.98;;
75537;SDS011;64121;48.666;8.114;2023-02-15T00:08:51;25.67;;;12.82;;
75537;SDS011;64121;48.666;8.114;2023-02-15T00:11:19;25.67;;;14.25;;
75537;SDS011;64121;48.666;8.114;2023-02-15T00:13:44;26.90;;;12.13;;
75537;SDS011;64121;48.666;8.114;2023-02-15T00:16:10;24.60;;;13.00;;
75537;SDS011;64121;48.666;8.114;2023-02-15T00:18:37;23.70;;;12.88;;
75537;SDS011;64121;48.666;8.114;2023-02-15T00:21:03;22.10;;;11.95;;
75537;SDS011;64121;48.666;8.114;2023-02-15T00:23:30;25.08;;;13.05;;
75537;SDS011;64121;48.666;8.114;2023-02-15T00:26:02;23.95;;;12.43;;
75537;SDS011;64121;48.666;8.114;2023-02-15T00:28:30;26.23;;;13.75;;
75537;SDS011;64121;48.666;8.114;2023-02-15T00:31:01;22.42;;;11.80;;
75537;SDS011;64121;48.666;8.114;2023-02-15T00:33:27;21.65;;;12.73;;
75537;SDS011;64121;48.666;8.114;2023-02-15T00:35:55;18.83;;;11.00;;
75537;SDS011;64121;48.666;8.114;2023-02-15T00:38:20;23.92;;;12.18;;
75537;SDS011;64121;48.666;8.114;2023-02-15T00:40:51;20.20;;;11.13;;
75537;SDS011;64121;48.666;8.114;2023-02-15T00:43:17;23.90;;;12.57;;
75537;SDS011;64121;48.666;8.114;2023-02-15T00:45:43;35.20;;;12.65;;
75537;SDS011;64121;48.666;8.114;2023-02-15T00:48:09;24.98;;;11.77;;
75537;SDS011;64121;48.666;8.114;2023-02-15T00:50:35;24.70;;;12.10;;
75537;SDS011;64121;48.666;8.114;2023-02-15T00:53:00;25.20;;;11.88;;
75537;SDS011;64121;48.666;8.114;2023-02-15T00:55:25;25.55;;;11.93;;
75537;SDS011;64121;48.666;8.114;2023-02-15T00:57:51;22.00;;;11.88;;
75537;SDS011;64121;48.666;8.114;2023-02-15T01:00:16;27.05;;;11.32;;
75537;SDS011;64121;48.666;8.114;2023-02-15T01:02:43;21.85;;;11.88;;
75537;SDS011;64121;48.666;8.114;2023-02-15T01:05:08;49.00;;;14.20;;
75537;SDS011;64121;48.666;8.114;2023-02-15T01:07:33;32.03;;;12.40;;
75537;SDS011;64121;48.666;8.114;2023-02-15T01:09:59;40.30;;;13.30;;
75537;SDS011;64121;48.666;8.114;2023-02-15T01:12:24;60.67;;;14.55;;
75537;SDS011;64121;48.666;8.114;2023-02-15T01:14:49;25.42;;;11.60;;
75537;SDS011;64121;48.666;8.114;2023-02-15T01:17:15;21.42;;;12.50;;
75537;SDS011;64121;48.666;8.114;2023-02-15T01:19:41;19.85;;;10.88;;
75537;SDS011;64121;48.666;8.114;2023-02-15T01:22:07;22.92;;;11.48;;
75537;SDS011;64121;48.666;8.114;2023-02-15T01:24:32;21.83;;;12.10;;
75537;SDS011;64121;48.666;8.114;2023-02-15T01:26:57;35.88;;;11.82;;
75537;SDS011;64121;48.666;8.114;2023-02-15T01:29:23;28.27;;;12.13;;
75537;SDS011;64121;48.666;8.114;2023-02-15T01:31:48;31.27;;;11.80;;
75537;SDS011;64121;48.666;8.114;2023-02-15T01:34:13;56.88;;;13.38;;
75537;SDS011;64121;48.666;8.114;2023-02-15T01:36:40;34.58;;;12.65;;
75537;SDS011;64121;48.666;8.114;2023-02-15T01:39:06;43.20;;;12.30;;
75537;SDS011;64121;48.666;8.114;2023-02-15T01:41:31;33.88;;;11.93;;
75537;SDS011;64121;48.666;8.114;2023-02-15T01:43:57;35.45;;;12.52;;
75537;SDS011;64121;48.666;8.114;2023-02-15T01:46:25;20.40;;;11.70;;
75537;SDS011;64121;48.666;8.114;2023-02-15T01:48:56;21.25;;;11.20;;
75537;SDS011;64121;48.666;8.114;2023-02-15T01:51:27;31.50;;;11.73;;
75537;SDS011;64121;48.666;8.114;2023-02-15T01:53:57;20.67;;;11.85;;
75537;SDS011;64121;48.666;8.114;2023-02-15T01:56:27;28.63;;;12.07;;
75537;SDS011;64121;48.666;8.114;2023-02-15T01:58:56;24.55;;;11.65;;
75537;SDS011;64121;48.666;8.114;2023-02-15T02:01:25;26.33;;;11.85;;
75537;SDS011;64121;48.666;8.114;2023-02-15T02:03:54;23.23;;;12.20;;
75537;SDS011;64121;48.666;8.114;2023-02-15T02:06:24;21.73;;;12.32;;
75537;SDS011;64121;48.666;8.114;2023-02-15T02:08:51;22.15;;;11.63;;
75537;SDS011;64121;48.666;8.114;2023-02-15T02:11:19;85.10;;;14.00;;
75537;SDS011;64121;48.666;8.114;2023-02-15T02:13:46;19.48;;;10.93;;
75537;SDS011;64121;48.666;8.114;2023-02-15T02:16:13;29.95;;;11.95;;
75537;SDS011;64121;48.666;8.114;2023-02-15T02:18:47;21.13;;;11.48;;
75537;SDS011;64121;48.666;8.114;2023-02-15T02:21:31;21.85;;;11.40;;
75537;SDS011;64121;48.666;8.114;2023-02-15T02:24:28;19.63;;;10.10;;
75537;SDS011;64121;48.666;8.114;2023-02-15T02:27:19;20.10;;;10.88;;
75537;SDS011;64121;48.666;8.114;2023-02-15T02:30:00;32.22;;;11.02;;
75537;SDS011;64121;48.666;8.114;2023-02-15T02:35:44;18.85;;;10.82;;
75537;SDS011;64121;48.666;8.114;2023-02-15T02:38:20;20.10;;;10.70;;
75537;SDS011;64121;48.666;8.114;2023-02-15T02:40:55;21.73;;;11.13;;
75537;SDS011;64121;48.666;8.114;2023-02-15T02:43:29;18.92;;;10.35;;
75537;SDS011;64121;48.666;8.114;2023-02-15T02:46:02;24.38;;;10.90;;
75537;SDS011;64121;48.666;8.114;2023-02-15T02:48:34;19.10;;;11.30;;
75537;SDS011;64121;48.666;8.114;2023-02-15T02:50:59;20.88;;;10.20;;
75537;SDS011;64121;48.666;8.114;2023-02-15T02:53:25;21.52;;;10.68;;
75537;SDS011;64121;48.666;8.114;2023-02-15T02:55:54;20.55;;;10.38;;
75537;SDS011;64121;48.666;8.114;2023-02-15T02:58:23;19.02;;;10.07;;
75537;SDS011;64121;48.666;8.114;2023-02-15T03:00:54;18.83;;;10.18;;
75537;SDS011;64121;48.666;8.114;2023-02-15T03:03:23;18.55;;;10.50;;
75537;SDS011;64121;48.666;8.114;2023-02-15T03:05:54;18.88;;;10.75;;
75537;SDS011;64121;48.666;8.114;2023-02-15T03:08:24;20.00;;;9.68;;
75537;SDS011;64121;48.666;8.114;2023-02-15T03:10:55;20.50;;;10.57;;
75537;SDS011;64121;48.666;8.114;2023-02-15T03:13:23;18.85;;;9.68;;
75537;SDS011;64121;48.666;8.114;2023-02-15T03:15:49;22.70;;;10.55;;
75537;SDS011;64121;48.666;8.114;2023-02-15T03:18:17;16.10;;;10.68;;
75537;SDS011;64121;48.666;8.114;2023-02-15T03:20:47;20.60;;;10.20;;
75537;SDS011;64121;48.666;8.114;2023-02-15T03:23:18;17.90;;;9.45;;
75537;SDS011;64121;48.666;8.114;2023-02-15T03:25:48;20.40;;;10.43;;
75537;SDS011;64121;48.666;8.114;2023-02-15T03:28:18;19.83;;;10.68;;
75537;SDS011;64121;48.666;8.114;2023-02-15T03:30:48;19.17;;;9.75;;
75537;SDS011;64121;48.666;8.114;2023-02-15T03:33:18;15.10;;;8.73;;
75537;SDS011;64121;48.666;8.114;2023-02-15T03:35:47;20.77;;;9.60;;
75537;SDS011;64121;48.666;8.114;2023-02-15T03:38:20;30.60;;;10.23;;
75537;SDS011;64121;48.666;8.114;2023-02-15T03:40:54;22.85;;;10.43;;
75537;SDS011;64121;48.666;8.114;2023-02-15T03:43:25;33.80;;;11.65;;
75537;SDS011;64121;48.666;8.114;2023-02-15T03:45:57;18.30;;;10.65;;
75537;SDS011;64121;48.666;8.114;2023-02-15T03:48:31;19.02;;;10.13;;
75537;SDS011;64121;48.666;8.114;2023-02-15T03:51:02;19.08;;;9.27;;
75537;SDS011;64121;48.666;8.114;2023-02-15T03:53:33;20.08;;;9.98;;
75537;SDS011;64121;48.666;8.114;2023-02-15T03:55:59;17.73;;;9.18;;
75537;SDS011;64121;48.666;8.114;2023-02-15T03:58:25;18.52;;;10.38;;
75537;SDS011;64121;48.666;8.114;2023-02-15T04:00:52;17.98;;;8.95;;
75537;SDS011;64121;48.666;8.114;2023-02-15T04:03:23;18.00;;;9.68;;
75537;SDS011;64121;48.666;8.114;2023-02-15T04:05:53;16.63;;;9.95;;
75537;SDS011;64121;48.666;8.114;2023-02-15T04:08:18;18.58;;;9.05;;
75537;SDS011;64121;48.666;8.114;2023-02-15T04:10:45;18.73;;;8.90;;
75537;SDS011;64121;48.666;8.114;2023-02-15T04:13:10;16.70;;;9.38;;
75537;SDS011;64121;48.666;8.114;2023-02-15T04:15:35;21.67;;;10.52;;
75537;SDS011;64121;48.666;8.114;2023-02-15T04:18:01;16.95;;;9.18;;
75537;SDS011;64121;48.666;8.114;2023-02-15T04:20:27;19.70;;;9.05;;
75537;SDS011;64121;48.666;8.114;2023-02-15T04:22:52;17.40;;;8.32;;
75537;SDS011;64121;48.666;8.114;2023-02-15T04:25:17;14.82;;;8.05;;
75537;SDS011;64121;48.666;8.114;2023-02-15T04:27:45;15.93;;;8.52;;
75537;SDS011;64121;48.666;8.114;2023-02-15T04:30:12;16.45;;;8.63;;
75537;SDS011;64121;48.666;8.114;2023-02-15T04:32:40;13.85;;;7.75;;
75537;SDS011;64121;48.666;8.114;2023-02-15T04:35:05;17.58;;;8.52;;
75537;SDS011;64121;48.666;8.114;2023-02-15T04:37:31;17.50;;;8.10;;
75537;SDS011;64121;48.666;8.114;2023-02-15T04:39:57;18.17;;;8.43;;
75537;SDS011;64121;48.666;8.114;2023-02-15T04:42:22;18.13;;;8.88;;
75537;SDS011;64121;48.666;8.114;2023-02-15T04:44:49;13.10;;;6.90;;
75537;SDS011;64121;48.666;8.114;2023-02-15T04:47:14;15.38;;;8.10;;
75537;SDS011;64121;48.666;8.114;2023-02-15T04:49:40;18.13;;;9.55;;
75537;SDS011;64121;48.666;8.114;2023-02-15T04:52:05;15.32;;;8.73;;
75537;SDS011;64121;48.666;8.114;2023-02-15T04:54:30;14.57;;;7.50;;
75537;SDS011;64121;48.666;8.114;2023-02-15T04:56:56;12.30;;;7.47;;
75537;SDS011;64121;48.666;8.114;2023-02-15T04:59:21;13.77;;;6.80;;
75537;SDS011;64121;48.666;8.114;2023-02-15T05:01:48;13.73;;;6.85;;
75537;SDS011;64121;48.666;8.114;2023-02-15T05:04:13;13.10;;;7.63;;
75537;SDS011;64121;48.666;8.114;2023-02-15T05:06:38;12.25;;;6.97;;
75537;SDS011;64121;48.666;8.114;2023-02-15T05:09:04;11.80;;;6.97;;
75537;SDS011;64121;48.666;8.114;2023-02-15T05:11:29;14.55;;;7.10;;
75537;SDS011;64121;48.666;8.114;2023-02-15T05:13:54;13.85;;;7.28;;
75537;SDS011;64121;48.666;8.114;2023-02-15T05:16:20;14.35;;;6.57;;
75537;SDS011;64121;48.666;8.114;2023-02-15T05:18:46;15.10;;;7.55;;
75537;SDS011;64121;48.666;8.114;2023-02-15T05:21:12;11.18;;;6.43;;
75537;SDS011;64121;48.666;8.114;2023-02-15T05:23:37;13.15;;;8.15;;
75537;SDS011;64121;48.666;8.114;2023-02-15T05:26:02;14.30;;;6.85;;
75537;SDS011;64121;48.666;8.114;2023-02-15T05:28:28;12.45;;;6.68;;
75537;SDS011;64121;48.666;8.114;2023-02-15T05:30:58;13.20;;;7.03;;
75537;SDS011;64121;48.666;8.114;2023-02-15T05:33:28;9.85;;;6.07;;
75537;SDS011;64121;48.666;8.114;2023-02-15T05:35:54;13.05;;;7.05;;
75537;SDS011;64121;48.666;8.114;2023-02-15T05:38:20;12.70;;;6.40;;
75537;SDS011;64121;48.666;8.114;2023-02-15T05:40:45;11.85;;;7.05;;
75537;SDS011;64121;48.666;8.114;2023-02-15T05:43:10;14.95;;;7.10;;
75537;SDS011;64121;48.666;8.114;2023-02-15T05:45:36;10.20;;;5.93;;
75537;SDS011;64121;48.666;8.114;2023-02-15T05:48:01;9.75;;;6.43;;
75537;SDS011;64121;48.666;8.114;2023-02-15T05:50:26;15.57;;;7.35;;
75537;SDS011;64121;48.666;8.114;2023-02-15T05:52:53;14.18;;;8.38;;
75537;SDS011;64121;48.666;8.114;2023-02-15T05:55:18;12.85;;;7.00;;
75537;SDS011;64121;48.666;8.114;2023-02-15T05:57:44;14.40;;;7.85;;
75537;SDS011;64121;48.666;8.114;2023-02-15T06:00:10;15.95;;;8.55;;
75537;SDS011;64121;48.666;8.114;2023-02-15T06:02:37;27.58;;;15.45;;
75537;SDS011;64121;48.666;8.114;2023-02-15T06:05:02;30.80;;;13.30;;
75537;SDS011;64121;48.666;8.114;2023-02-15T06:07:28;13.30;;;8.10;;
75537;SDS011;64121;48.666;8.114;2023-02-15T06:09:54;14.10;;;7.95;;
75537;SDS011;64121;48.666;8.114;2023-02-15T06:12:20;14.20;;;9.00;;
75537;SDS011;64121;48.666;8.114;2023-02-15T06:14:45;16.23;;;9.30;;
75537;SDS011;64121;48.666;8.114;2023-02-15T06:17:10;19.15;;;7.30;;
75537;SDS011;64121;48.666;8.114;2023-02-15T06:19:36;13.82;;;7.05;;
75537;SDS011;64121;48.666;8.114;2023-02-15T06:22:01;16.58;;;6.65;;
75537;SDS011;64121;48.666;8.114;2023-02-15T06:24:26;12.70;;;6.57;;
75537;SDS011;64121;48.666;8.114;2023-02-15T06:26:53;16.15;;;7.10;;
75537;SDS011;64121;48.666;8.114;2023-02-15T06:29:18;12.32;;;6.75;;
75537;SDS011;64121;48.666;8.114;2023-02-15T06:31:44;12.30;;;6.68;;
75537;SDS011;64121;48.666;8.114;2023-02-15T06:34:09;11.65;;;6.40;;
75537;SDS011;64121;48.666;8.114;2023-02-15T06:36:34;10.10;;;5.85;;
75537;SDS011;64121;48.666;8.114;2023-02-15T06:39:00;11.40;;;6.65;;
75537;SDS011;64121;48.666;8.114;2023-02-15T06:41:25;10.98;;;6.15;;
75537;SDS011;64121;48.666;8.114;2023-02-15T06:43:52;10.88;;;5.88;;
75537;SDS011;64121;48.666;8.114;2023-02-15T06:46:17;16.27;;;6.72;;
75537;SDS011;64121;48.666;8.114;2023-02-15T06:48:42;11.65;;;6.35;;
75537;SDS011;64121;48.666;8.114;2023-02-15T06:51:08;11.25;;;6.93;;
75537;SDS011;64121;48.666;8.114;2023-02-15T06:53:33;13.48;;;7.82;;
75537;SDS011;64121;48.666;8.114;2023-02-15T06:56:01;12.27;;;7.47;;
75537;SDS011;64121;48.666;8.114;2023-02-15T06:58:27;13.38;;;6.85;;
75537;SDS011;64121;48.666;8.114;2023-02-15T07:00:54;13.05;;;7.32;;
75537;SDS011;64121;48.666;8.114;2023-02-15T07:03:19;11.75;;;6.65;;
75537;SDS011;64121;48.666;8.114;2023-02-15T07:05:44;11.32;;;6.50;;
75537;SDS011;64121;48.666;8.114;2023-02-15T07:08:10;12.48;;;7.15;;
75537;SDS011;64121;48.666;8.114;2023-02-15T07:10:35;9.88;;;6.22;;
75537;SDS011;64121;48.666;8.114;2023-02-15T07:13:00;11.10;;;6.32;;
75537;SDS011;64121;48.666;8.114;2023-02-15T07:15:26;11.40;;;6.18;;
75537;SDS011;64121;48.666;8.114;2023-02-15T07:17:52;11.60;;;7.00;;
75537;SDS011;64121;48.666;8.114;2023-02-15T07:20:19;11.32;;;6.40;;
75537;SDS011;64121;48.666;8.114;2023-02-15T07:22:45;10.82;;;6.45;;
75537;SDS011;64121;48.666;8.114;2023-02-15T07:25:11;9.40;;;5.95;;
75537;SDS011;64121;48.666;8.114;2023-02-15T07:27:37;10.30;;;6.40;;
75537;SDS011;64121;48.666;8.114;2023-02-15T07:30:03;10.15;;;6.10;;
75537;SDS011;64121;48.666;8.114;2023-02-15T07:32:29;13.32;;;8.15;;
75537;SDS011;64121;48.666;8.114;2023-02-15T07:34:57;13.77;;;8.32;;
75537;SDS011;64121;48.666;8.114;2023-02-15T07:37:22;11.80;;;7.10;;
75537;SDS011;64121;48.666;8.114;2023-02-15T07:39:48;12.88;;;6.82;;
75537;SDS011;64121;48.666;8.114;2023-02-15T07:42:13;12.48;;;6.40;;
75537;SDS011;64121;48.666;8.114;2023-02-15T07:44:39;10.95;;;7.20;;
75537;SDS011;64121;48.666;8.114;2023-02-15T07:47:04;12.13;;;6.03;;
75537;SDS011;64121;48.666;8.114;2023-02-15T07:49:29;13.73;;;7.15;;
75537;SDS011;64121;48.666;8.114;2023-02-15T07:51:56;11.60;;;6.80;;
75537;SDS011;64121;48.666;8.114;2023-02-15T07:54:21;14.05;;;7.53;;
75537;SDS011;64121;48.666;8.114;2023-02-15T07:56:47;13.60;;;7.05;;
75537;SDS011;64121;48.666;8.114;2023-02-15T07:59:12;12.82;;;8.00;;
75537;SDS011;64121;48.666;8.114;2023-02-15T08:01:38;13.52;;;8.00;;
75537;SDS011;64121;48.666;8.114;2023-02-15T08:04:04;13.60;;;8.18;;
75537;SDS011;64121;48.666;8.114;2023-02-15T08:06:31;13.60;;;7.82;;
75537;SDS011;64121;48.666;8.114;2023-02-15T08:09:00;17.90;;;7.10;;
75537;SDS011;64121;48.666;8.114;2023-02-15T08:11:26;16.05;;;7.72;;
75537;SDS011;64121;48.666;8.114;2023-02-15T08:13:53;13.77;;;7.18;;
75537;SDS011;64121;48.666;8.114;2023-02-15T08:16:21;16.05;;;7.07;;
75537;SDS011;64121;48.666;8.114;2023-02-15T08:18:47;12.02;;;7.40;;
75537;SDS011;64121;48.666;8.114;2023-02-15T08:21:12;10.90;;;6.80;;
75537;SDS011;64121;48.666;8.114;2023-02-15T08:23:38;23.33;;;8.15;;
75537;SDS011;64121;48.666;8.114;2023-02-15T08:26:05;14.23;;;7.63;;
75537;SDS011;64121;48.666;8.114;2023-02-15T08:28:33;13.10;;;7.95;;
75537;SDS011;64121;48.666;8.114;2023-02-15T08:31:03;16.05;;;8.48;;
75537;SDS011;64121;48.666;8.114;2023-02-15T08:33:29;14.27;;;8.13;;
75537;SDS011;64121;48.666;8.114;2023-02-15T08:35:55;14.25;;;9.00;;
75537;SDS011;64121;48.666;8.114;2023-02-15T08:38:20;14.77;;;8.70;;
75537;SDS011;64121;48.666;8.114;2023-02-15T08:40:45;13.50;;;8.35;;
75537;SDS011;64121;48.666;8.114;2023-02-15T08:43:12;15.38;;;9.18;;
75537;SDS011;64121;48.666;8.114;2023-02-15T08:45:37;15.18;;;8.55;;
75537;SDS011;64121;48.666;8.114;2023-02-15T08:48:03;14.95;;;7.20;;
75537;SDS011;64121;48.666;8.114;2023-02-15T08:50:28;13.55;;;8.23;;
75537;SDS011;64121;48.666;8.114;2023-02-15T08:52:54;17.13;;;8.38;;
75537;SDS011;64121;48.666;8.114;2023-02-15T08:55:20;14.57;;;9.13;;
75537;SDS011;64121;48.666;8.114;2023-02-15T08:57:48;15.00;;;8.40;;
75537;SDS011;64121;48.666;8.114;2023-02-15T09:00:16;20.27;;;9.63;;
75537;SDS011;64121;48.666;8.114;2023-02-15T09:02:42;17.48;;;9.38;;
75537;SDS011;64121;48.666;8.114;2023-02-15T09:05:07;23.30;;;9.23;;
75537;SDS011;64121;48.666;8.114;2023-02-15T09:07:33;20.92;;;8.95;;
75537;SDS011;64121;48.666;8.114;2023-02-15T09:09:58;16.85;;;9.70;;
75537;SDS011;64121;48.666;8.114;2023-02-15T09:12:23;20.20;;;9.15;;
75537;SDS011;64121;48.666;8.114;2023-02-15T09:14:49;20.67;;;8.68;;
75537;SDS011;64121;48.666;8.114;2023-02-15T09:17:15;17.08;;;9.38;;
75537;SDS011;64121;48.666;8.114;2023-02-15T09:19:41;19.42;;;9.88;;
75537;SDS011;64121;48.666;8.114;2023-02-15T09:22:06;24.08;;;10.07;;
75537;SDS011;64121;48.666;8.114;2023-02-15T09:24:32;18.10;;;9.25;;
75537;SDS011;64121;48.666;8.114;2023-02-15T09:26:57;18.27;;;10.20;;
75537;SDS011;64121;48.666;8.114;2023-02-15T09:29:22;16.85;;;9.73;;
75537;SDS011;64121;48.666;8.114;2023-02-15T09:31:48;23.40;;;10.45;;
75537;SDS011;64121;48.666;8.114;2023-02-15T09:34:17;17.63;;;10.02;;
75537;SDS011;64121;48.666;8.114;2023-02-15T09:36:44;17.00;;;9.40;;
75537;SDS011;64121;48.666;8.114;2023-02-15T09:39:11;16.83;;;9.85;;
75537;SDS011;64121;48.666;8.114;2023-02-15T09:41:42;20.27;;;10.35;;
75537;SDS011;64121;48.666;8.114;2023-02-15T09:44:21;16.02;;;9.48;;
75537;SDS011;64121;48.666;8.114;2023-02-15T09:47:02;20.95;;;10.40;;
75537;SDS011;64121;48.666;8.114;2023-02-15T09:49:43;17.17;;;9.20;;
75537;SDS011;64121;48.666;8.114;2023-02-15T09:52:19;17.48;;;9.98;;
75537;SDS011;64121;48.666;8.114;2023-02-15T09:55:01;17.50;;;10.10;;
75537;SDS011;64121;48.666;8.114;2023-02-15T09:57:40;17.90;;;10.07;;
75537;SDS011;64121;48.666;8.114;2023-02-15T10:00:16;20.67;;;10.95;;
75537;SDS011;64121;48.666;8.114;2023-02-15T10:02:57;15.85;;;9.20;;
75537;SDS011;64121;48.666;8.114;2023-02-15T10:05:38;18.58;;;11.00;;
75537;SDS011;64121;48.666;8.114;2023-02-15T10:08:29;18.50;;;10.27;;
75537;SDS011;64121;48.666;8.114;2023-02-15T10:11:07;17.45;;;10.10;;
75537;SDS011;64121;48.666;8.114;2023-02-15T10:16:12;17.38;;;9.60;;
75537;SDS011;64121;48.666;8.114;2023-02-15T10:18:50;24.02;;;10.15;;
75537;SDS011;64121;48.666;8.114;2023-02-15T10:21:27;23.65;;;10.48;;
75537;SDS011;64121;48.666;8.114;2023-02-15T10:24:06;16.52;;;9.93;;
75537;SDS011;64121;48.666;8.114;2023-02-15T10:26:46;18.15;;;10.60;;
75537;SDS011;64121;48.666;8.114;2023-02-15T10:29:15;19.33;;;10.25;;
75537;SDS011;64121;48.666;8.114;2023-02-15T10:31:50;26.52;;;11.55;;
75537;SDS011;64121;48.666;8.114;2023-02-15T10:34:21;17.90;;;10.00;;
75537;SDS011;64121;48.666;8.114;2023-02-15T10:36:57;16.65;;;10.43;;
75537;SDS011;64121;48.666;8.114;2023-02-15T10:39:48;19.25;;;11.18;;
75537;SDS011;64121;48.666;8.114;2023-02-15T10:42:26;17.67;;;9.88;;
75537;SDS011;64121;48.666;8.114;2023-02-15T10:45:06;17.20;;;11.63;;
75537;SDS011;64121;48.666;8.114;2023-02-15T10:47:41;19.27;;;10.65;;
75537;SDS011;64121;48.666;8.114;2023-02-15T10:50:27;17.67;;;10.73;;
75537;SDS011;64121;48.666;8.114;2023-02-15T10:53:10;20.48;;;11.13;;
75537;SDS011;64121;48.666;8.114;2023-02-15T10:55:50;19.70;;;11.48;;
75537;SDS011;64121;48.666;8.114;2023-02-15T10:58:24;20.97;;;10.87;;
75537;SDS011;64121;48.666;8.114;2023-02-15T11:01:05;19.00;;;11.10;;
75537;SDS011;64121;48.666;8.114;2023-02-15T11:03:46;18.20;;;11.05;;
75537;SDS011;64121;48.666;8.114;2023-02-15T11:06:19;22.60;;;12.73;;
75537;SDS011;64121;48.666;8.114;2023-02-15T11:08:49;23.40;;;12.48;;
75537;SDS011;64121;48.666;8.114;2023-02-15T11:11:19;24.52;;;15.10;;
75537;SDS011;64121;48.666;8.114;2023-02-15T11:13:48;18.33;;;12.32;;
75537;SDS011;64121;48.666;8.114;2023-02-15T11:16:18;17.38;;;10.93;;
75537;SDS011;64121;48.666;8.114;2023-02-15T11:18:48;17.58;;;10.98;;
75537;SDS011;64121;48.666;8.114;2023-02-15T11:21:20;21.75;;;12.40;;
75537;SDS011;64121;48.666;8.114;2023-02-15T11:23:49;21.17;;;11.48;;
75537;SDS011;64121;48.666;8.114;2023-02-15T11:26:16;17.42;;;11.55;;
75537;SDS011;64121;48.666;8.114;2023-02-15T11:28:47;19.63;;;10.93;;
75537;SDS011;64121;48.666;8.114;2023-02-15T11:31:18;18.15;;;10.30;;
75537;SDS011;64121;48.666;8.114;2023-02-15T11:33:47;18.83;;;11.80;;
75537;SDS011;64121;48.666;8.114;2023-02-15T11:36:17;17.55;;;11.63;;
75537;SDS011;64121;48.666;8.114;2023-02-15T11:38:46;18.42;;;11.43;;
75537;SDS011;64121;48.666;8.114;2023-02-15T11:41:18;19.35;;;12.02;;
75537;SDS011;64121;48.666;8.114;2023-02-15T11:43:49;23.58;;;12.32;;
75537;SDS011;64121;48.666;8.114;2023-02-15T11:46:20;20.85;;;11.98;;
75537;SDS011;64121;48.666;8.114;2023-02-15T11:48:45;20.60;;;12.35;;
75537;SDS011;64121;48.666;8.114;2023-02-15T11:51:12;19.00;;;11.77;;
75537;SDS011;64121;48.666;8.114;2023-02-15T11:53:39;18.65;;;12.15;;
75537;SDS011;64121;48.666;8.114;2023-02-15T11:56:09;21.65;;;11.90;;
75537;SDS011;64121;48.666;8.114;2023-02-15T11:58:40;18.85;;;12.55;;
75537;SDS011;64121;48.666;8.114;2023-02-15T12:01:10;24.02;;;13.65;;
75537;SDS011;64121;48.666;8.114;2023-02-15T12:03:43;19.85;;;11.73;;
75537;SDS011;64121;48.666;8.114;2023-02-15T12:06:12;19.60;;;13.70;;
75537;SDS011;64121;48.666;8.114;2023-02-15T12:08:43;22.42;;;14.20;;
75537;SDS011;64121;48.666;8.114;2023-02-15T12:11:17;24.13;;;14.20;;
75537;SDS011;64121;48.666;8.114;2023-02-15T12:13:55;22.90;;;13.30;;
75537;SDS011;64121;48.666;8.114;2023-02-15T12:16:22;22.98;;;13.68;;
75537;SDS011;64121;48.666;8.114;2023-02-15T12:18:47;23.23;;;13.27;;
75537;SDS011;64121;48.666;8.114;2023-02-15T12:21:14;20.80;;;12.90;;
75537;SDS011;64121;48.666;8.114;2023-02-15T12:23:50;21.48;;;13.13;;
75537;SDS011;64121;48.666;8.114;2023-02-15T12:26:24;23.80;;;13.20;;
75537;SDS011;64121;48.666;8.114;2023-02-15T12:28:50;22.60;;;13.23;;
75537;SDS011;64121;48.666;8.114;2023-02-15T12:31:19;21.77;;;12.40;;
75537;SDS011;64121;48.666;8.114;2023-02-15T12:33:47;18.02;;;11.48;;
75537;SDS011;64121;48.666;8.114;2023-02-15T12:36:15;24.42;;;12.50;;
75537;SDS011;64121;48.666;8.114;2023-02-15T12:38:43;21.65;;;12.23;;
75537;SDS011;64121;48.666;8.114;2023-02-15T12:41:28;19.38;;;11.98;;
75537;SDS011;64121;48.666;8.114;2023-02-15T12:44:02;20.65;;;13.10;;
75537;SDS011;64121;48.666;8.114;2023-02-15T12:46:29;22.55;;;13.73;;
75537;SDS011;64121;48.666;8.114;2023-02-15T12:49:11;22.52;;;14.40;;
75537;SDS011;64121;48.666;8.114;2023-02-15T12:51:42;22.95;;;13.48;;
75537;SDS011;64121;48.666;8.114;2023-02-15T12:54:15;19.95;;;12.20;;
75537;SDS011;64121;48.666;8.114;2023-02-15T12:56:43;21.98;;;12.40;;
75537;SDS011;64121;48.666;8.114;2023-02-15T12:59:12;23.85;;;12.93;;
75537;SDS011;64121;48.666;8.114;2023-02-15T13:01:42;19.48;;;12.93;;
75537;SDS011;64121;48.666;8.114;2023-02-15T13:04:13;23.00;;;13.45;;
75537;SDS011;64121;48.666;8.114;2023-02-15T13:06:46;22.73;;;12.75;;
75537;SDS011;64121;48.666;8.114;2023-02-15T13:09:14;22.27;;;14.68;;
75537;SDS011;64121;48.666;8.114;2023-02-15T13:11:44;20.85;;;13.73;;
75537;SDS011;64121;48.666;8.114;2023-02-15T13:14:16;24.88;;;14.13;;
75537;SDS011;64121;48.666;8.114;2023-02-15T13:16:44;24.50;;;13.68;;
75537;SDS011;64121;48.666;8.114;2023-02-15T13:19:12;21.90;;;12.75;;
75537;SDS011;64121;48.666;8.114;2023-02-15T13:21:41;20.85;;;13.43;;
75537;SDS011;64121;48.666;8.114;2023-02-15T13:24:13;22.75;;;13.90;;
75537;SDS011;64121;48.666;8.114;2023-02-15T13:26:44;23.55;;;13.55;;
75537;SDS011;64121;48.666;8.114;2023-02-15T13:29:12;22.17;;;14.10;;
75537;SDS011;64121;48.666;8.114;2023-02-15T13:31:43;24.08;;;15.85;;
75537;SDS011;64121;48.666;8.114;2023-02-15T13:34:09;22.25;;;14.85;;
75537;SDS011;64121;48.666;8.114;2023-02-15T13:36:41;26.05;;;15.05;;
75537;SDS011;64121;48.666;8.114;2023-02-15T13:39:20;24.38;;;14.73;;
75537;SDS011;64121;48.666;8.114;2023-02-15T13:41:55;23.77;;;14.57;;
75537;SDS011;64121;48.666;8.114;2023-02-15T13:44:28;24.85;;;14.95;;
75537;SDS011;64121;48.666;8.114;2023-02-15T13:47:14;25.40;;;13.88;;
75537;SDS011;64121;48.666;8.114;2023-02-15T13:49:49;25.08;;;15.27;;
75537;SDS011;64121;48.666;8.114;2023-02-15T13:52:28;22.33;;;14.02;;
75537;SDS011;64121;48.666;8.114;2023-02-15T13:55:13;24.77;;;14.60;;
75537;SDS011;64121;48.666;8.114;2023-02-15T13:58:03;24.92;;;13.60;;
75537;SDS011;64121;48.666;8.114;2023-02-15T14:00:42;26.45;;;14.45;;
75537;SDS011;64121;48.666;8.114;2023-02-15T14:03:27;23.65;;;14.40;;
75537;SDS011;64121;48.666;8.114;2023-02-15T14:06:14;22.73;;;13.85;;
75537;SDS011;64121;48.666;8.114;2023-02-15T14:08:54;26.35;;;15.43;;
75537;SDS011;64121;48.666;8.114;2023-02-15T14:11:33;23.60;;;14.17;;
75537;SDS011;64121;48.666;8.114;2023-02-15T14:16:57;22.38;;;14.77;;
75537;SDS011;64121;48.666;8.114;2023-02-15T14:19:29;27.85;;;14.88;;
75537;SDS011;64121;48.666;8.114;2023-02-15T14:22:00;22.38;;;14.40;;
75537;SDS011;64121;48.666;8.114;2023-02-15T14:24:33;23.77;;;14.25;;
75537;SDS011;64121;48.666;8.114;2023-02-15T14:27:07;24.63;;;14.15;;
75537;SDS011;64121;48.666;8.114;2023-02-15T14:29:47;21.50;;;13.48;;
75537;SDS011;64121;48.666;8.114;2023-02-15T14:32:18;24.50;;;15.45;;
75537;SDS011;64121;48.666;8.114;2023-02-15T14:34:50;21.90;;;13.82;;
75537;SDS011;64121;48.666;8.114;2023-02-15T14:37:19;24.05;;;14.27;;
75537;SDS011;64121;48.666;8.114;2023-02-15T14:39:55;24.08;;;14.23;;
75537;SDS011;64121;48.666;8.114;2023-02-15T14:42:28;23.60;;;13.75;;
75537;SDS011;64121;48.666;8.114;2023-02-15T14:45:01;22.73;;;14.75;;
75537;SDS011;64121;48.666;8.114;2023-02-15T14:47:32;24.33;;;15.32;;